createdAt,value
2017-12-12T00:00:43.391Z,97561.72
2017-12-12T00:03:10.793Z,97574.71
2017-12-12T00:05:38.178Z,97577.23
2017-12-12T00:08:05.575Z,97580.77
2017-12-12T00:10:32.962Z,97592.98
2017-12-12T00:13:00.374Z,97599.73
2017-12-12T00:15:27.867Z,97607.87
2017-12-12T00:17:55.252Z,97621.04
2017-12-12T00:20:22.651Z,97619.52
2017-12-12T00:22:50.043Z,97621.66
2017-12-12T00:25:17.466Z,97626.86
2017-12-12T00:27:44.855Z,97624.69
2017-12-12T00:30:12.262Z,97624.31
2017-12-12T00:32:39.738Z,97623.91
2017-12-12T00:35:07.140Z,97629.02
2017-12-12T00:37:34.548Z,97634.77
2017-12-12T00:40:01.934Z,97641.04
2017-12-12T00:42:29.324Z,97638.81
2017-12-12T00:44:56.722Z,97653.44
2017-12-12T00:47:24.115Z,97655.97
2017-12-12T00:49:51.511Z,97656.17
2017-12-12T00:52:18.890Z,97665.79
2017-12-12T00:54:46.290Z,97660.23
2017-12-12T00:57:13.786Z,97673.15
2017-12-12T00:59:41.185Z,97668.98
2017-12-12T01:02:08.568Z,97673.58
2017-12-12T01:04:35.967Z,97676.25
2017-12-12T01:07:03.371Z,97678.98
2017-12-12T01:09:30.798Z,97680.78
2017-12-12T01:11:58.147Z,97682.36
2017-12-12T01:14:25.567Z,97681.42
2017-12-12T01:16:52.963Z,97685.31
2017-12-12T01:19:20.360Z,97691.12
2017-12-12T01:21:47.759Z,97695.02
2017-12-12T01:24:15.153Z,97706.55
2017-12-12T01:26:42.553Z,97716.57
2017-12-12T01:29:09.935Z,97725.27
2017-12-12T01:31:37.468Z,97720.66
2017-12-12T01:34:04.850Z,97724.59
2017-12-12T01:36:32.262Z,97727.39
2017-12-12T01:38:59.638Z,97738.37
2017-12-12T01:41:27.039Z,97726.23
2017-12-12T01:43:54.431Z,97735.38
2017-12-12T01:46:21.836Z,97737.92
2017-12-12T01:48:49.231Z,97745.37
2017-12-12T01:51:16.703Z,97739.98
2017-12-12T01:53:44.090Z,97753.95
2017-12-12T01:56:11.483Z,97760.22
2017-12-12T01:58:38.963Z,97764.83
2017-12-12T02:01:06.353Z,97765.61
2017-12-12T02:03:33.747Z,97763.67
2017-12-12T02:06:01.135Z,97775.44
2017-12-12T02:08:28.530Z,97772.59
2017-12-12T02:10:55.919Z,97783.75
2017-12-12T02:13:23.314Z,97789.59
2017-12-12T02:15:50.734Z,97794.75
2017-12-12T02:18:18.135Z,97798.00
2017-12-12T02:20:45.536Z,97809.02
2017-12-12T02:23:12.938Z,97814.93
2017-12-12T02:25:40.331Z,97818.94
2017-12-12T02:28:07.745Z,97824.20
2017-12-12T02:30:35.137Z,97828.61
2017-12-12T02:33:02.540Z,97834.55
2017-12-12T02:35:29.992Z,97837.28
2017-12-12T02:37:57.390Z,97848.78
2017-12-12T02:40:24.782Z,97857.47
2017-12-12T02:42:52.199Z,97858.11
2017-12-12T02:45:19.589Z,97864.51
2017-12-12T02:47:46.997Z,97863.17
2017-12-12T02:50:14.425Z,97870.79
2017-12-12T02:52:41.819Z,97867.42
2017-12-12T02:55:09.255Z,97871.42
2017-12-12T02:57:36.610Z,97879.22
2017-12-12T03:00:04.010Z,97880.69
2017-12-12T03:02:31.394Z,97883.77
2017-12-12T03:04:58.790Z,97898.04
2017-12-12T03:07:26.265Z,97906.55
2017-12-12T03:09:53.647Z,97908.30
2017-12-12T03:12:21.034Z,97923.05
2017-12-12T03:14:48.428Z,97927.94
2017-12-12T03:17:15.819Z,97936.71
2017-12-12T03:19:43.211Z,97943.92
2017-12-12T03:22:10.603Z,97947.47
2017-12-12T03:24:38.004Z,97957.31
2017-12-12T03:27:05.391Z,97961.73
2017-12-12T03:29:32.791Z,97967.63
2017-12-12T03:32:00.183Z,97975.38
2017-12-12T03:34:27.583Z,97988.94
2017-12-12T03:36:54.977Z,97990.74
2017-12-12T03:39:22.365Z,97999.88
2017-12-12T03:41:49.771Z,98004.02
2017-12-12T03:44:17.176Z,98010.83
2017-12-12T03:46:44.562Z,98013.98
2017-12-12T03:49:11.955Z,98019.00
2017-12-12T03:51:39.358Z,98026.30
2017-12-12T03:54:06.838Z,98035.76
2017-12-12T03:56:34.235Z,98046.39
2017-12-12T03:59:01.633Z,98049.59
2017-12-12T04:01:29.022Z,98058.20
2017-12-12T04:03:56.415Z,98065.37
2017-12-12T04:06:23.923Z,98074.17
2017-12-12T04:08:51.319Z,98089.55
2017-12-12T04:11:18.706Z,98092.52
2017-12-12T04:13:46.107Z,98096.84
2017-12-12T04:16:13.497Z,98103.13
2017-12-12T04:18:40.899Z,98113.05
2017-12-12T04:21:08.283Z,98124.27
2017-12-12T04:23:35.683Z,98142.54
2017-12-12T04:26:03.162Z,98149.76
2017-12-12T04:28:30.545Z,98156.05
2017-12-12T04:30:57.947Z,98167.17
2017-12-12T04:33:25.338Z,98177.39
2017-12-12T04:35:52.727Z,98192.58
2017-12-12T04:38:20.114Z,98204.52
2017-12-12T04:40:47.502Z,98209.41
2017-12-12T04:43:14.911Z,98217.24
2017-12-12T04:45:42.308Z,98231.48
2017-12-12T04:48:09.707Z,98235.31
2017-12-12T04:50:37.115Z,98247.66
2017-12-12T04:53:04.510Z,98251.48
2017-12-12T04:55:31.931Z,98260.63
2017-12-12T04:57:59.316Z,98269.27
2017-12-12T05:00:26.711Z,98273.95
2017-12-12T05:02:54.102Z,98282.77
2017-12-12T05:05:21.486Z,98293.38
2017-12-12T05:07:48.887Z,98308.22
2017-12-12T05:10:16.270Z,98313.78
2017-12-12T05:12:43.679Z,98325.17
2017-12-12T05:15:11.080Z,98327.41
2017-12-12T05:17:38.469Z,98338.08
2017-12-12T05:20:05.867Z,98341.30
2017-12-12T05:22:33.255Z,98343.84
2017-12-12T05:25:00.651Z,98359.27
2017-12-12T05:27:28.445Z,98363.92
2017-12-12T05:29:55.897Z,98371.42
2017-12-12T05:32:23.224Z,98379.06
2017-12-12T05:34:50.622Z,98383.85
2017-12-12T05:37:18.070Z,98397.02
2017-12-12T05:39:45.471Z,98407.14
2017-12-12T05:42:12.899Z,98412.42
2017-12-12T05:44:40.387Z,98423.44
2017-12-12T05:47:07.864Z,98432.83
2017-12-12T05:49:35.310Z,98432.33
2017-12-12T05:52:02.706Z,98451.38
2017-12-12T05:54:30.119Z,98463.50
2017-12-12T05:56:57.524Z,98474.95
2017-12-12T05:59:24.933Z,98486.60
2017-12-12T06:01:52.327Z,98502.74
2017-12-12T06:04:19.723Z,98503.22
2017-12-12T06:06:47.118Z,98518.28
2017-12-12T06:09:14.534Z,98530.23
2017-12-12T06:11:41.970Z,98538.14
2017-12-12T06:14:09.331Z,98546.60
2017-12-12T06:16:36.728Z,98552.59
2017-12-12T06:19:04.130Z,98560.50
2017-12-12T06:21:31.532Z,98573.23
2017-12-12T06:23:58.920Z,98581.43
2017-12-12T06:26:26.319Z,98579.58
2017-12-12T06:28:53.723Z,98591.94
2017-12-12T06:31:21.120Z,98602.60
2017-12-12T06:33:48.516Z,98611.42
2017-12-12T06:36:15.911Z,98625.40
2017-12-12T06:38:43.305Z,98636.74
2017-12-12T06:41:10.694Z,98648.51
2017-12-12T06:43:38.087Z,98652.82
2017-12-12T06:46:05.490Z,98655.89
2017-12-12T06:48:32.874Z,98656.20
2017-12-12T06:51:00.280Z,98658.87
2017-12-12T06:53:27.666Z,98668.05
2017-12-12T06:55:55.063Z,98676.80
2017-12-12T06:58:22.469Z,98688.97
2017-12-12T07:00:49.873Z,98698.14
2017-12-12T07:03:17.268Z,98716.84
2017-12-12T07:05:44.670Z,98717.66
2017-12-12T07:08:12.088Z,98721.71
2017-12-12T07:10:39.475Z,98723.88
2017-12-12T07:13:06.872Z,98741.94
2017-12-12T07:15:34.249Z,98753.16
2017-12-12T07:18:01.659Z,98755.00
2017-12-12T07:20:29.055Z,98766.40
2017-12-12T07:22:56.447Z,98773.58
2017-12-12T07:25:23.838Z,98785.08
2017-12-12T07:27:51.259Z,98794.06
2017-12-12T07:30:18.656Z,98802.22
2017-12-12T07:32:46.054Z,98807.08
2017-12-12T07:35:13.438Z,98819.25
2017-12-12T07:37:40.837Z,98816.38
2017-12-12T07:40:08.225Z,98831.38
2017-12-12T07:42:35.627Z,98835.94
2017-12-12T07:45:03.024Z,98843.75
2017-12-12T07:47:30.511Z,98855.80
2017-12-12T07:49:57.831Z,98865.09
2017-12-12T07:52:25.236Z,98874.20
2017-12-12T07:54:52.647Z,98877.14
2017-12-12T07:57:20.039Z,98890.36
2017-12-12T07:59:47.438Z,98903.53
2017-12-12T08:02:14.825Z,98912.16
2017-12-12T08:04:42.486Z,98908.73
2017-12-12T08:07:09.871Z,98914.72
2017-12-12T08:09:37.271Z,98917.56
2017-12-12T08:12:04.663Z,98929.58
2017-12-12T08:14:32.067Z,98931.81
2017-12-12T08:16:59.460Z,98948.62
2017-12-12T08:19:26.882Z,98943.34
2017-12-12T08:21:54.271Z,98952.58
2017-12-12T08:24:21.674Z,98963.29
2017-12-12T08:26:49.069Z,98979.45
2017-12-12T08:29:16.466Z,98977.27
2017-12-12T08:31:43.863Z,98977.14
2017-12-12T08:34:11.259Z,98981.05
2017-12-12T08:36:38.647Z,98990.86
2017-12-12T08:39:06.056Z,99003.89
2017-12-12T08:41:33.447Z,99018.09
2017-12-12T08:44:00.852Z,99019.53
2017-12-12T08:46:28.238Z,99035.28
2017-12-12T08:48:55.633Z,99036.82
2017-12-12T08:51:23.138Z,99044.92
2017-12-12T08:53:50.507Z,99053.27
2017-12-12T08:56:17.911Z,99065.00
2017-12-12T08:58:45.303Z,99075.65
2017-12-12T09:01:12.703Z,99085.79
2017-12-12T09:03:40.086Z,99087.45
2017-12-12T09:06:07.487Z,99090.94
2017-12-12T09:08:34.878Z,99096.50
2017-12-12T09:11:02.271Z,99101.48
2017-12-12T09:13:29.668Z,99107.33
2017-12-12T09:15:57.063Z,99115.69
2017-12-12T09:18:25.219Z,99119.19
2017-12-12T09:20:52.625Z,99125.53
2017-12-12T09:23:20.009Z,99131.31
2017-12-12T09:25:47.429Z,99129.84
2017-12-12T09:28:14.812Z,99135.56
2017-12-12T09:30:42.211Z,99148.24
2017-12-12T09:33:09.601Z,99149.11
2017-12-12T09:35:37.002Z,99160.22
2017-12-12T09:38:04.395Z,99158.50
2017-12-12T09:40:31.794Z,99177.44
2017-12-12T09:42:59.186Z,99181.50
2017-12-12T09:45:26.595Z,99191.78
2017-12-12T09:47:53.995Z,99190.97
2017-12-12T09:50:21.394Z,99190.60
2017-12-12T09:52:48.786Z,99195.80
2017-12-12T09:55:16.971Z,99194.91
2017-12-12T09:57:44.371Z,99197.16
2017-12-12T10:00:11.758Z,99204.60
2017-12-12T10:02:39.162Z,99210.30
2017-12-12T10:05:06.552Z,99213.78
2017-12-12T10:07:33.971Z,99228.42
2017-12-12T10:10:01.366Z,99227.28
2017-12-12T10:12:28.763Z,99235.66
2017-12-12T10:14:56.155Z,99244.14
2017-12-12T10:17:23.551Z,99246.73
2017-12-12T10:19:50.939Z,99253.61
2017-12-12T10:22:18.331Z,99255.84
2017-12-12T10:24:45.739Z,99261.53
2017-12-12T10:27:13.136Z,99269.34
2017-12-12T10:29:40.527Z,99280.33
2017-12-12T10:32:07.936Z,99280.64
2017-12-12T10:34:35.320Z,99287.44
2017-12-12T10:37:02.747Z,99300.45
2017-12-12T10:39:30.163Z,99303.11
2017-12-12T10:41:57.546Z,99305.72
2017-12-12T10:44:24.964Z,99312.53
2017-12-12T10:46:52.355Z,99316.59
2017-12-12T10:49:19.783Z,99321.87
2017-12-12T10:51:47.180Z,99330.19
2017-12-12T10:54:14.574Z,99334.77
2017-12-12T10:56:41.964Z,99343.73
2017-12-12T10:59:09.359Z,99351.77
2017-12-12T11:01:36.745Z,99354.64
2017-12-12T11:04:04.211Z,99356.21
2017-12-12T11:06:31.590Z,99363.50
2017-12-12T11:08:58.983Z,99364.55
2017-12-12T11:11:26.365Z,99364.25
2017-12-12T11:13:53.755Z,99357.75
2017-12-12T11:16:21.196Z,99369.02
2017-12-12T11:18:48.578Z,99376.23
2017-12-12T11:21:16.000Z,99376.02
2017-12-12T11:23:43.382Z,99382.16
2017-12-12T11:26:10.774Z,99391.75
2017-12-12T11:28:38.178Z,99393.63
2017-12-12T11:31:05.563Z,99402.86
2017-12-12T11:33:32.953Z,99412.97
2017-12-12T11:36:00.343Z,99412.50
2017-12-12T11:38:27.808Z,99419.59
2017-12-12T11:40:55.127Z,99422.88
2017-12-12T11:43:22.511Z,99425.75
2017-12-12T11:45:49.899Z,99435.33
2017-12-12T11:48:17.285Z,99437.78
2017-12-12T11:50:44.671Z,99440.12
2017-12-12T11:53:12.060Z,99453.27
2017-12-12T11:55:39.448Z,99460.79
2017-12-12T11:58:06.830Z,99456.78
2017-12-12T12:00:34.214Z,99471.67
2017-12-12T12:03:01.604Z,99474.70
2017-12-12T12:05:28.989Z,99486.79
2017-12-12T12:07:56.370Z,99489.03
2017-12-12T12:10:23.792Z,99491.52
2017-12-12T12:12:51.175Z,99498.06
2017-12-12T12:15:18.571Z,99507.34
2017-12-12T12:17:45.975Z,99515.78
2017-12-12T12:20:13.362Z,99514.48
2017-12-12T12:22:40.760Z,99518.63
2017-12-12T12:25:08.147Z,99528.29
2017-12-12T12:27:35.590Z,99534.89
2017-12-12T12:30:04.584Z,99536.58
2017-12-12T12:32:31.958Z,99536.40
2017-12-12T12:34:59.584Z,99545.58
2017-12-12T12:37:27.912Z,99550.15
2017-12-12T12:39:55.290Z,99564.88
2017-12-12T12:42:22.674Z,99566.57
2017-12-12T12:44:50.053Z,99574.08
2017-12-12T12:47:17.461Z,99584.52
2017-12-12T12:49:44.834Z,99588.70
2017-12-12T12:52:12.235Z,99593.82
2017-12-12T12:54:39.607Z,99602.98
2017-12-12T12:57:07.015Z,99614.42
2017-12-12T12:59:34.384Z,99619.12
2017-12-12T13:02:01.825Z,99613.81
2017-12-12T13:04:29.251Z,99633.91
2017-12-12T13:06:56.634Z,99641.06
2017-12-12T13:09:24.027Z,99639.05
2017-12-12T13:11:51.418Z,99644.27
2017-12-12T13:14:18.839Z,99655.89
2017-12-12T13:16:46.207Z,99658.45
2017-12-12T13:19:13.599Z,99663.84
2017-12-12T13:21:40.994Z,99666.53
2017-12-12T13:24:08.375Z,99671.36
2017-12-12T13:26:35.779Z,99678.88
2017-12-12T13:29:03.167Z,99688.22
2017-12-12T13:31:30.558Z,99697.94
2017-12-12T13:33:57.953Z,99704.95
2017-12-12T13:36:25.341Z,99711.24
2017-12-12T13:38:52.837Z,99717.90
2017-12-12T13:41:20.222Z,99723.28
2017-12-12T13:43:47.611Z,99730.35
2017-12-12T13:46:15.000Z,99741.11
2017-12-12T13:48:42.395Z,99748.83
2017-12-12T13:51:09.775Z,99755.75
2017-12-12T13:53:37.393Z,99752.23
2017-12-12T13:56:04.895Z,99772.20
2017-12-12T13:58:32.382Z,99773.91
2017-12-12T14:00:59.771Z,99772.84
2017-12-12T14:03:27.281Z,99782.30
2017-12-12T14:05:54.679Z,99781.46
2017-12-12T14:08:22.091Z,99786.52
2017-12-12T14:10:49.461Z,99796.86
2017-12-12T14:13:22.599Z,99797.05
2017-12-12T14:15:49.983Z,99810.09
2017-12-12T14:18:17.386Z,99820.32
2017-12-12T14:20:44.827Z,99830.28
2017-12-12T14:23:12.247Z,99841.27
2017-12-12T14:25:39.636Z,99841.61
2017-12-12T14:28:07.036Z,99848.89
2017-12-12T14:30:34.418Z,99857.99
2017-12-12T14:33:01.832Z,99862.58
2017-12-12T14:35:29.240Z,99868.89
2017-12-12T14:37:56.635Z,99873.46
2017-12-12T14:40:24.027Z,99887.25
2017-12-12T14:42:51.444Z,99893.63
2017-12-12T14:45:18.836Z,99894.98
2017-12-12T14:47:46.226Z,99904.84
2017-12-12T14:50:13.634Z,99909.03
2017-12-12T14:52:41.011Z,99910.34
2017-12-12T14:55:08.414Z,99920.81
2017-12-12T14:57:35.803Z,99927.25
2017-12-12T15:00:04.155Z,99935.96
2017-12-12T15:02:31.547Z,99951.02
2017-12-12T15:04:58.943Z,99948.67
2017-12-12T15:07:26.382Z,99962.75
2017-12-12T15:09:53.780Z,99966.25
2017-12-12T15:12:21.183Z,99976.17
2017-12-12T15:14:48.623Z,99977.05
2017-12-12T15:17:16.015Z,99985.13
2017-12-12T15:19:43.418Z,99991.74
2017-12-12T15:22:10.794Z,99998.02
2017-12-12T15:24:38.195Z,100006.13
2017-12-12T15:27:05.624Z,100009.42
2017-12-12T15:29:33.027Z,100020.16
2017-12-12T15:32:00.432Z,100018.09
2017-12-12T15:34:27.831Z,100025.02
2017-12-12T15:36:55.227Z,100036.91
2017-12-12T15:39:22.616Z,100057.65
2017-12-12T15:41:50.012Z,100059.50
2017-12-12T15:44:17.437Z,100058.81
2017-12-12T15:46:44.807Z,100063.00
2017-12-12T15:49:12.215Z,100073.94
2017-12-12T15:51:39.620Z,100087.82
2017-12-12T15:54:07.022Z,100095.27
2017-12-12T15:56:34.422Z,100095.91
2017-12-12T15:59:01.854Z,100106.59
2017-12-12T16:01:29.251Z,100119.00
2017-12-12T16:03:56.630Z,100124.76
2017-12-12T16:06:24.031Z,100126.99
2017-12-12T16:08:51.426Z,100131.53
2017-12-12T16:11:18.822Z,100131.75
2017-12-12T16:13:46.221Z,100136.55
2017-12-12T16:16:13.610Z,100145.37
2017-12-12T16:18:41.026Z,100157.52
2017-12-12T16:21:08.426Z,100159.88
2017-12-12T16:23:35.887Z,100159.56
2017-12-12T16:26:03.267Z,100164.59
2017-12-12T16:28:30.662Z,100168.59
2017-12-12T16:30:58.056Z,100179.45
2017-12-12T16:33:25.450Z,100187.05
2017-12-12T16:35:52.863Z,100187.54
2017-12-12T16:38:20.262Z,100187.59
2017-12-12T16:40:47.648Z,100196.42
2017-12-12T16:43:15.046Z,100197.45
2017-12-12T16:45:42.439Z,100200.11
2017-12-12T16:48:09.852Z,100206.63
2017-12-12T16:50:37.268Z,100212.75
2017-12-12T16:53:04.675Z,100216.71
2017-12-12T16:55:32.067Z,100215.80
2017-12-12T16:57:59.500Z,100226.67
2017-12-12T17:00:26.922Z,100226.85
2017-12-12T17:02:54.332Z,100230.56
2017-12-12T17:05:21.719Z,100236.05
2017-12-12T17:07:49.132Z,100243.20
2017-12-12T17:10:16.522Z,100239.80
2017-12-12T17:12:43.926Z,100243.77
2017-12-12T17:15:11.332Z,100248.68
2017-12-12T17:17:38.724Z,100253.89
2017-12-12T17:20:06.127Z,100254.14
2017-12-12T17:22:33.529Z,100257.98
2017-12-12T17:25:00.951Z,100264.61
2017-12-12T17:27:28.351Z,100271.02
2017-12-12T17:29:55.750Z,100272.66
2017-12-12T17:32:23.148Z,100272.92
2017-12-12T17:34:50.548Z,100276.66
2017-12-12T17:37:17.946Z,100281.48
2017-12-12T17:39:45.345Z,100279.12
2017-12-12T17:42:12.735Z,100279.77
2017-12-12T17:44:40.135Z,100284.16
2017-12-12T17:47:07.534Z,100288.30
2017-12-12T17:49:34.926Z,100297.18
2017-12-12T17:52:02.315Z,100295.90
2017-12-12T17:54:29.702Z,100299.03
2017-12-12T17:56:57.115Z,100300.78
2017-12-12T17:59:24.508Z,100301.91
2017-12-12T18:01:51.903Z,100308.33
2017-12-12T18:04:19.290Z,100317.14
2017-12-12T18:06:46.686Z,100319.89
2017-12-12T18:09:14.091Z,100315.77
2017-12-12T18:11:41.491Z,100326.25
2017-12-12T18:14:08.886Z,100331.50
2017-12-12T18:16:36.272Z,100326.23
2017-12-12T18:19:03.662Z,100322.50
2017-12-12T18:21:31.063Z,100333.68
2017-12-12T18:23:58.468Z,100335.91
2017-12-12T18:26:25.860Z,100342.98
2017-12-12T18:28:53.259Z,100350.20
2017-12-12T18:31:20.654Z,100352.85
2017-12-12T18:33:48.046Z,100356.21
2017-12-12T18:36:15.452Z,100358.16
2017-12-12T18:38:42.931Z,100357.83
2017-12-12T18:41:10.338Z,100371.81
2017-12-12T18:43:37.731Z,100367.30
2017-12-12T18:46:05.123Z,100366.98
2017-12-12T18:48:32.528Z,100375.56
2017-12-12T18:50:59.927Z,100384.95
2017-12-12T18:53:27.407Z,100387.98
2017-12-12T18:55:54.807Z,100389.34
2017-12-12T18:58:22.211Z,100393.73
2017-12-12T19:00:49.610Z,100400.63
2017-12-12T19:03:17.085Z,100404.73
2017-12-12T19:05:44.464Z,100405.57
2017-12-12T19:08:11.867Z,100413.42
2017-12-12T19:13:11.235Z,100405.12
2017-12-12T19:15:38.635Z,100409.05
2017-12-12T19:18:06.031Z,100408.59
2017-12-12T19:20:33.424Z,100409.15
2017-12-12T19:23:00.830Z,100414.98
2017-12-12T19:25:28.223Z,100420.20
2017-12-12T19:27:55.640Z,100422.50
2017-12-12T19:30:23.035Z,100419.45
2017-12-12T19:32:50.459Z,100422.83
2017-12-12T19:35:17.855Z,100421.02
2017-12-12T19:37:45.238Z,100426.63
2017-12-12T19:40:12.643Z,100435.15
2017-12-12T19:42:40.042Z,100437.45
2017-12-12T19:45:07.451Z,100437.91
2017-12-12T19:47:34.852Z,100441.13
2017-12-12T19:50:02.255Z,100454.92
2017-12-12T19:52:29.651Z,100454.50
2017-12-12T19:54:57.067Z,100453.58
2017-12-12T19:57:24.459Z,100456.80
2017-12-12T19:59:51.866Z,100456.95
2017-12-12T20:02:19.262Z,100459.76
2017-12-12T20:04:46.670Z,100462.62
2017-12-12T20:07:14.076Z,100464.00
2017-12-12T20:09:41.492Z,100471.70
2017-12-12T20:12:08.898Z,100469.02
2017-12-12T20:14:36.295Z,100471.84
2017-12-12T20:17:03.694Z,100473.72
2017-12-12T20:19:31.098Z,100486.26
2017-12-12T20:21:58.487Z,100480.76
2017-12-12T20:24:25.911Z,100488.34
2017-12-12T20:26:53.305Z,100497.44
2017-12-12T20:29:20.697Z,100499.27
2017-12-12T20:31:48.121Z,100510.55
2017-12-12T20:34:15.507Z,100511.50
2017-12-12T20:36:42.921Z,100507.94
2017-12-12T20:39:10.316Z,100515.47
2017-12-12T20:41:37.715Z,100517.52
2017-12-12T20:44:05.117Z,100518.16
2017-12-12T20:46:32.518Z,100515.70
2017-12-12T20:48:59.920Z,100515.51
2017-12-12T20:51:27.318Z,100512.66
2017-12-12T20:53:54.719Z,100513.39
2017-12-12T20:56:22.150Z,100509.24
2017-12-12T20:58:49.551Z,100504.80
2017-12-12T21:01:16.953Z,100511.37
2017-12-12T21:03:44.343Z,100510.02
2017-12-12T21:06:11.746Z,100506.28
2017-12-12T21:08:39.226Z,100505.37
2017-12-12T21:11:06.730Z,100508.89
2017-12-12T21:13:34.122Z,100507.34
2017-12-12T21:16:01.522Z,100512.95
2017-12-12T21:18:28.915Z,100512.53
2017-12-12T21:20:56.334Z,100508.61
2017-12-12T21:23:23.726Z,100509.94
2017-12-12T21:25:51.147Z,100512.11
2017-12-12T21:28:18.546Z,100511.06
2017-12-12T21:30:45.953Z,100508.22
2017-12-12T21:33:13.364Z,100506.98
2017-12-12T21:35:40.763Z,100507.92
2017-12-12T21:38:08.176Z,100500.45
2017-12-12T21:40:35.568Z,100505.09
2017-12-12T21:43:02.984Z,100503.14
2017-12-12T21:45:30.383Z,100510.78
2017-12-12T21:47:57.783Z,100517.45
2017-12-12T21:50:25.177Z,100519.18
2017-12-12T21:52:52.574Z,100517.03
2017-12-12T21:55:20.079Z,100509.28
2017-12-12T21:57:47.486Z,100508.88
2017-12-12T22:00:14.992Z,100509.28
2017-12-12T22:02:42.407Z,100504.06
2017-12-12T22:05:09.787Z,100507.83
2017-12-12T22:07:37.190Z,100511.57
2017-12-12T22:10:04.579Z,100521.58
2017-12-12T22:12:31.983Z,100517.07
2017-12-12T22:14:59.372Z,100521.30
2017-12-12T22:17:26.775Z,100521.80
2017-12-12T22:19:54.166Z,100519.89
2017-12-12T22:22:21.592Z,100521.19
2017-12-12T22:24:48.982Z,100519.59
2017-12-12T22:27:16.379Z,100523.40
2017-12-12T22:29:43.802Z,100525.36
2017-12-12T22:32:11.192Z,100525.37
2017-12-12T22:34:38.623Z,100530.03
2017-12-12T22:37:06.015Z,100518.41
2017-12-12T22:39:33.423Z,100523.20
2017-12-12T22:42:00.827Z,100527.69
2017-12-12T22:44:28.226Z,100534.00
2017-12-12T22:46:55.622Z,100530.33
2017-12-12T22:49:23.031Z,100542.00
2017-12-12T22:51:51.327Z,100539.81
2017-12-12T22:54:18.719Z,100537.34
2017-12-12T22:56:46.120Z,100533.26
2017-12-12T22:59:13.675Z,100538.23
2017-12-12T23:01:41.076Z,100536.89
2017-12-12T23:04:08.475Z,100536.05
2017-12-12T23:06:35.883Z,100529.69
2017-12-12T23:09:03.286Z,100535.02
2017-12-12T23:11:30.685Z,100525.36
2017-12-12T23:13:58.090Z,100532.97
2017-12-12T23:16:25.483Z,100536.56
2017-12-12T23:18:52.891Z,100537.42
2017-12-12T23:21:20.279Z,100537.77
2017-12-12T23:23:47.684Z,100526.27
2017-12-12T23:26:15.118Z,100541.70
2017-12-12T23:28:42.523Z,100537.12
2017-12-12T23:31:09.922Z,100541.19
2017-12-12T23:33:37.311Z,100535.39
2017-12-12T23:36:04.771Z,100538.37
2017-12-12T23:38:32.250Z,100538.55
2017-12-12T23:40:59.655Z,100544.78
2017-12-12T23:43:27.066Z,100541.70
2017-12-12T23:45:54.463Z,100541.91
2017-12-12T23:48:21.882Z,100539.76
2017-12-12T23:50:49.284Z,100544.59
2017-12-12T23:53:16.731Z,100547.58
2017-12-12T23:55:44.130Z,100543.14
2017-12-12T23:58:11.531Z,100542.88
